createdAt,value
2017-03-20T00:00:20.796Z,0
2017-03-20T00:01:01.293Z,0
2017-03-20T00:01:41.778Z,0
2017-03-20T00:02:22.265Z,0
2017-03-20T00:03:02.753Z,0
2017-03-20T00:03:43.241Z,0
2017-03-20T00:04:23.718Z,0
2017-03-20T00:05:04.206Z,0
2017-03-20T00:05:44.689Z,0
2017-03-20T00:06:25.179Z,0
2017-03-20T00:07:05.669Z,0
2017-03-20T00:07:46.165Z,0
2017-03-20T00:08:26.651Z,0
2017-03-20T00:09:07.144Z,0
2017-03-20T00:09:47.629Z,0
2017-03-20T00:10:28.120Z,0
2017-03-20T00:11:08.608Z,0
2017-03-20T00:11:49.118Z,0
2017-03-20T00:12:29.607Z,0
2017-03-20T00:13:10.102Z,0
2017-03-20T00:13:50.594Z,0
2017-03-20T00:14:31.084Z,0
2017-03-20T00:15:11.579Z,0
2017-03-20T00:15:52.071Z,0
2017-03-20T00:16:32.577Z,0
2017-03-20T00:17:13.055Z,0
2017-03-20T00:17:53.540Z,0
2017-03-20T00:18:34.042Z,0
2017-03-20T00:19:15.047Z,0
2017-03-20T00:19:55.542Z,0
2017-03-20T00:20:36.034Z,0
2017-03-20T00:21:16.524Z,0
2017-03-20T00:21:57.018Z,0
2017-03-20T00:22:37.515Z,0
2017-03-20T00:23:17.993Z,0
2017-03-20T00:23:58.498Z,0
2017-03-20T00:24:38.994Z,0
2017-03-20T00:25:19.481Z,0
2017-03-20T00:25:59.973Z,0
2017-03-20T00:26:40.452Z,0
2017-03-20T00:27:20.929Z,0
2017-03-20T00:28:01.414Z,0
2017-03-20T00:28:41.906Z,0
2017-03-20T00:29:22.400Z,0
2017-03-20T00:30:02.887Z,0
2017-03-20T00:30:43.388Z,0
2017-03-20T00:31:23.875Z,0
2017-03-20T00:32:04.363Z,0
2017-03-20T00:32:44.867Z,0
2017-03-20T00:33:25.352Z,0
2017-03-20T00:34:05.836Z,0
2017-03-20T00:34:46.337Z,0
2017-03-20T00:35:26.820Z,0
2017-03-20T00:36:07.298Z,0
2017-03-20T00:36:47.787Z,0
2017-03-20T00:37:28.285Z,0
2017-03-20T00:38:08.776Z,0
2017-03-20T00:38:49.271Z,0
2017-03-20T00:39:29.799Z,0
2017-03-20T00:40:10.264Z,0
2017-03-20T00:40:50.767Z,0
2017-03-20T00:41:31.271Z,0
2017-03-20T00:42:11.741Z,0
2017-03-20T00:42:52.218Z,0
2017-03-20T00:43:32.706Z,0
2017-03-20T00:44:13.196Z,0
2017-03-20T00:44:53.670Z,0
2017-03-20T00:45:34.164Z,0
2017-03-20T00:46:14.668Z,0
2017-03-20T00:46:55.166Z,0
2017-03-20T00:47:35.633Z,0
2017-03-20T00:48:16.127Z,0
2017-03-20T00:48:56.610Z,0
2017-03-20T00:49:37.109Z,0
2017-03-20T00:50:17.597Z,0
2017-03-20T00:50:58.097Z,0
2017-03-20T00:51:38.578Z,0
2017-03-20T00:52:19.076Z,0
2017-03-20T00:52:59.571Z,0
2017-03-20T00:53:40.054Z,0
2017-03-20T00:54:20.548Z,0
2017-03-20T00:55:01.043Z,0
2017-03-20T00:55:41.530Z,0
2017-03-20T00:56:22.029Z,0
2017-03-20T00:57:02.529Z,0
2017-03-20T00:57:43.009Z,0
2017-03-20T00:58:23.503Z,0
2017-03-20T00:59:03.984Z,0
2017-03-20T00:59:44.463Z,0
2017-03-20T01:00:24.958Z,0
2017-03-20T01:01:05.450Z,0
2017-03-20T01:01:45.942Z,0
2017-03-20T01:02:26.425Z,0
2017-03-20T01:03:06.918Z,0
2017-03-20T01:03:47.417Z,0
2017-03-20T01:04:27.902Z,0
2017-03-20T01:05:08.391Z,0
2017-03-20T01:05:48.899Z,0
2017-03-20T01:06:29.346Z,0
2017-03-20T01:07:09.848Z,0
2017-03-20T01:07:50.332Z,0
2017-03-20T01:08:30.829Z,0
2017-03-20T01:09:11.313Z,0
2017-03-20T01:09:51.803Z,0
2017-03-20T01:10:32.303Z,0
2017-03-20T01:11:12.791Z,0
2017-03-20T01:11:53.283Z,0
2017-03-20T01:12:33.774Z,0
2017-03-20T01:13:14.270Z,0
2017-03-20T01:13:54.766Z,0
2017-03-20T01:14:35.267Z,0
2017-03-20T01:15:15.776Z,0
2017-03-20T01:15:56.273Z,0
2017-03-20T01:16:36.723Z,0
2017-03-20T01:17:17.226Z,0
2017-03-20T01:17:57.715Z,0
2017-03-20T01:18:38.201Z,0
2017-03-20T01:19:18.696Z,0
2017-03-20T01:19:59.187Z,0
2017-03-20T01:20:39.689Z,0
2017-03-20T01:21:20.176Z,0
2017-03-20T01:22:00.670Z,0
2017-03-20T01:22:41.160Z,0
2017-03-20T01:23:21.650Z,0
2017-03-20T01:24:02.134Z,0
2017-03-20T01:24:42.638Z,0
2017-03-20T01:25:23.123Z,0
2017-03-20T01:26:03.583Z,0
2017-03-20T01:26:44.074Z,0
2017-03-20T01:27:24.567Z,0
2017-03-20T01:28:05.048Z,0
2017-03-20T01:28:45.520Z,0
2017-03-20T01:29:25.975Z,0
2017-03-20T01:30:06.432Z,0
2017-03-20T01:30:46.887Z,0
2017-03-20T01:31:27.348Z,0
2017-03-20T01:32:07.812Z,0
2017-03-20T01:32:48.279Z,0
2017-03-20T01:33:28.771Z,0
2017-03-20T01:34:09.233Z,0
2017-03-20T01:34:49.666Z,0
2017-03-20T01:37:02.388Z,0
2017-03-20T01:37:42.863Z,0
2017-03-20T01:38:23.344Z,0
2017-03-20T01:39:03.852Z,0
2017-03-20T01:39:44.323Z,0
2017-03-20T01:40:24.816Z,0
2017-03-20T01:41:05.304Z,0
2017-03-20T01:41:45.799Z,0
2017-03-20T01:42:26.296Z,0
2017-03-20T01:43:06.784Z,0
2017-03-20T01:43:47.281Z,0
2017-03-20T01:44:27.774Z,0
2017-03-20T01:45:08.252Z,0
2017-03-20T01:45:48.731Z,0
2017-03-20T01:46:29.267Z,0
2017-03-20T01:47:09.705Z,0
2017-03-20T01:47:50.194Z,0
2017-03-20T01:48:30.671Z,0
2017-03-20T01:49:11.175Z,0
2017-03-20T01:49:51.672Z,0
2017-03-20T01:50:32.153Z,0
2017-03-20T01:51:12.647Z,0
2017-03-20T01:51:53.149Z,0
2017-03-20T01:52:33.638Z,0
2017-03-20T01:53:14.146Z,0
2017-03-20T01:53:54.634Z,0
2017-03-20T01:54:35.123Z,0
2017-03-20T01:55:15.607Z,0
2017-03-20T01:55:56.091Z,0
2017-03-20T01:56:36.597Z,0
2017-03-20T01:57:17.067Z,0
2017-03-20T01:57:57.558Z,0
2017-03-20T01:58:38.035Z,0
2017-03-20T01:59:18.522Z,0
2017-03-20T01:59:59.028Z,0
2017-03-20T02:00:39.516Z,0
2017-03-20T02:01:19.985Z,0
2017-03-20T02:02:00.474Z,0
2017-03-20T02:02:40.962Z,0
2017-03-20T02:03:21.449Z,0
2017-03-20T02:04:01.939Z,0
2017-03-20T02:04:42.405Z,0
2017-03-20T02:05:22.902Z,0
2017-03-20T02:06:03.390Z,0
2017-03-20T02:06:43.885Z,0
2017-03-20T02:07:24.382Z,0
2017-03-20T02:08:04.871Z,0
2017-03-20T02:08:45.359Z,0
2017-03-20T02:11:13.297Z,0
2017-03-20T02:11:53.772Z,0
2017-03-20T02:12:34.262Z,0
2017-03-20T02:13:14.741Z,0
2017-03-20T02:13:55.235Z,0
2017-03-20T02:14:35.725Z,0
2017-03-20T02:15:16.214Z,0
2017-03-20T02:15:56.709Z,0
2017-03-20T02:16:37.199Z,0
2017-03-20T02:17:17.692Z,0
2017-03-20T02:17:58.190Z,0
2017-03-20T02:18:38.681Z,0
2017-03-20T02:19:19.172Z,0
2017-03-20T02:19:59.664Z,0
2017-03-20T02:20:40.156Z,0
2017-03-20T02:21:20.648Z,0
2017-03-20T02:22:01.143Z,0
2017-03-20T02:22:41.633Z,0
2017-03-20T02:23:23.116Z,0
2017-03-20T02:24:03.597Z,0
2017-03-20T02:24:44.086Z,0
2017-03-20T02:25:24.591Z,0
2017-03-20T02:26:05.884Z,0
2017-03-20T02:26:46.365Z,0
2017-03-20T02:27:26.858Z,0
2017-03-20T02:28:07.349Z,0
2017-03-20T02:28:47.839Z,0
2017-03-20T02:29:28.365Z,0
2017-03-20T02:30:08.822Z,0
2017-03-20T02:30:49.288Z,0
2017-03-20T02:31:29.774Z,0
2017-03-20T02:32:10.266Z,0
2017-03-20T02:32:50.766Z,0
2017-03-20T02:33:31.251Z,0
2017-03-20T02:34:11.743Z,0
2017-03-20T02:34:52.237Z,0
2017-03-20T02:35:32.746Z,0
2017-03-20T02:36:13.221Z,0
2017-03-20T02:36:53.716Z,0
2017-03-20T02:37:34.205Z,0
2017-03-20T02:38:14.699Z,0
2017-03-20T02:38:55.168Z,0
2017-03-20T02:39:35.666Z,0
2017-03-20T02:40:16.150Z,0
2017-03-20T02:40:56.635Z,0
2017-03-20T02:41:37.125Z,0
2017-03-20T02:42:17.616Z,0
2017-03-20T02:42:58.111Z,0
2017-03-20T02:43:38.609Z,0
2017-03-20T02:44:19.095Z,0
2017-03-20T02:44:59.592Z,0
2017-03-20T02:45:40.091Z,0
2017-03-20T02:46:20.573Z,0
2017-03-20T02:47:01.069Z,0
2017-03-20T02:47:41.543Z,0
2017-03-20T02:48:22.033Z,0
2017-03-20T02:49:02.542Z,0
2017-03-20T02:49:43.030Z,0
2017-03-20T02:50:23.530Z,0
2017-03-20T02:51:04.022Z,0
2017-03-20T02:51:44.522Z,0
2017-03-20T02:52:25.004Z,0
2017-03-20T02:53:05.500Z,0
2017-03-20T02:53:45.998Z,0
2017-03-20T02:54:26.488Z,0
2017-03-20T02:55:06.982Z,0
2017-03-20T02:55:47.483Z,0
2017-03-20T02:56:27.972Z,0
2017-03-20T02:57:08.482Z,0
2017-03-20T02:57:48.978Z,0
2017-03-20T02:58:29.472Z,0
2017-03-20T02:59:09.962Z,0
2017-03-20T02:59:50.441Z,0
2017-03-20T03:00:30.911Z,0
2017-03-20T03:01:11.404Z,0
2017-03-20T03:01:51.912Z,0
2017-03-20T03:02:32.390Z,0
2017-03-20T03:03:12.884Z,0
2017-03-20T03:03:53.376Z,0
2017-03-20T03:04:33.865Z,0
2017-03-20T03:05:14.359Z,0
2017-03-20T03:05:54.849Z,0
2017-03-20T03:06:35.340Z,0
2017-03-20T03:07:15.838Z,0
2017-03-20T03:07:56.329Z,0
2017-03-20T03:08:36.821Z,0
2017-03-20T03:09:17.317Z,0
2017-03-20T03:09:57.814Z,0
2017-03-20T03:10:38.302Z,0
2017-03-20T03:11:18.795Z,0
2017-03-20T03:11:59.295Z,0
2017-03-20T03:12:39.783Z,0
2017-03-20T03:13:20.270Z,0
2017-03-20T03:14:00.774Z,0
2017-03-20T03:14:41.253Z,0
2017-03-20T03:15:21.743Z,0
2017-03-20T03:16:02.244Z,0
2017-03-20T03:16:42.733Z,0
2017-03-20T03:17:23.224Z,0
2017-03-20T03:18:03.710Z,0
2017-03-20T03:18:44.208Z,0
2017-03-20T03:19:24.701Z,0
2017-03-20T03:20:05.187Z,0
2017-03-20T03:20:45.682Z,0
2017-03-20T03:21:26.182Z,0
2017-03-20T03:22:06.677Z,0
2017-03-20T03:22:47.163Z,0
2017-03-20T03:23:27.660Z,0
2017-03-20T03:24:08.146Z,0
2017-03-20T03:24:48.638Z,0
2017-03-20T03:25:29.135Z,0
2017-03-20T03:26:09.635Z,0
2017-03-20T03:26:50.132Z,0
2017-03-20T03:27:30.638Z,0
2017-03-20T03:28:11.133Z,0
2017-03-20T03:28:51.634Z,0
2017-03-20T03:29:32.165Z,0
2017-03-20T03:30:12.614Z,0
2017-03-20T03:30:53.112Z,0
2017-03-20T03:31:33.604Z,0
2017-03-20T03:32:14.090Z,0
2017-03-20T03:32:54.583Z,0
2017-03-20T03:33:35.074Z,0
2017-03-20T03:34:15.567Z,0
2017-03-20T03:34:56.058Z,0
2017-03-20T03:35:36.557Z,0
2017-03-20T03:36:17.045Z,0
2017-03-20T03:36:57.539Z,0
2017-03-20T03:37:38.038Z,0
2017-03-20T03:38:19.216Z,0
2017-03-20T03:38:59.707Z,0
2017-03-20T03:39:40.221Z,0
2017-03-20T03:40:20.713Z,0
2017-03-20T03:41:01.210Z,0
2017-03-20T03:41:41.692Z,0
2017-03-20T03:42:22.190Z,0
2017-03-20T03:43:02.683Z,0
2017-03-20T03:43:43.173Z,0
2017-03-20T03:44:23.668Z,0
2017-03-20T03:45:04.161Z,0
2017-03-20T03:45:44.647Z,0
2017-03-20T03:46:25.118Z,0
2017-03-20T03:47:05.616Z,0
2017-03-20T03:47:46.104Z,0
2017-03-20T03:48:26.597Z,0
2017-03-20T03:49:07.090Z,0
2017-03-20T03:49:47.587Z,0
2017-03-20T03:50:28.075Z,0
2017-03-20T03:51:09.308Z,0
2017-03-20T03:51:49.801Z,0
2017-03-20T03:52:30.290Z,0
2017-03-20T03:53:10.788Z,0
2017-03-20T03:53:51.278Z,0
2017-03-20T03:54:31.767Z,0
2017-03-20T03:55:12.294Z,0
2017-03-20T03:55:52.770Z,0
2017-03-20T03:56:33.245Z,0
2017-03-20T03:57:13.740Z,0
2017-03-20T03:57:54.230Z,0
2017-03-20T03:58:34.718Z,0
2017-03-20T03:59:15.220Z,0
2017-03-20T03:59:55.750Z,0
2017-03-20T04:00:36.193Z,0
2017-03-20T04:01:16.713Z,0
2017-03-20T04:01:57.201Z,0
2017-03-20T04:02:37.694Z,0
2017-03-20T04:03:18.209Z,0
2017-03-20T04:03:58.695Z,0
2017-03-20T04:04:39.172Z,0
2017-03-20T04:05:19.682Z,0
2017-03-20T04:06:00.180Z,0
2017-03-20T04:06:40.690Z,0
2017-03-20T04:07:21.181Z,0
2017-03-20T04:08:01.684Z,0
2017-03-20T04:08:42.187Z,0
2017-03-20T04:09:22.664Z,0
2017-03-20T04:10:03.660Z,0
2017-03-20T04:10:44.615Z,0
2017-03-20T04:11:25.090Z,0
2017-03-20T04:12:05.597Z,0
2017-03-20T04:12:46.090Z,0
2017-03-20T04:13:26.582Z,0
2017-03-20T04:14:07.073Z,0
2017-03-20T04:14:47.563Z,0
2017-03-20T04:15:28.041Z,0
2017-03-20T04:16:08.543Z,0
2017-03-20T04:16:49.030Z,0
2017-03-20T04:17:29.532Z,0
2017-03-20T04:18:10.011Z,0
2017-03-20T04:18:50.508Z,0
2017-03-20T04:19:30.986Z,0
2017-03-20T04:20:11.475Z,0
2017-03-20T04:20:51.971Z,0
2017-03-20T04:21:32.457Z,0
2017-03-20T04:22:12.951Z,0
2017-03-20T04:22:53.446Z,0
2017-03-20T04:23:33.933Z,0
2017-03-20T04:24:14.426Z,0
2017-03-20T04:24:54.928Z,0
2017-03-20T04:25:35.413Z,0
2017-03-20T04:26:15.885Z,0
2017-03-20T04:26:56.389Z,0
2017-03-20T04:27:36.889Z,0
2017-03-20T04:28:17.357Z,0
2017-03-20T04:28:57.847Z,0
2017-03-20T04:29:38.340Z,0
2017-03-20T04:30:18.828Z,0
2017-03-20T04:30:59.317Z,0
2017-03-20T04:31:39.842Z,0
2017-03-20T04:32:20.366Z,0
2017-03-20T04:33:01.405Z,0
2017-03-20T04:33:41.912Z,0
2017-03-20T04:34:22.390Z,0
2017-03-20T04:35:02.881Z,0
2017-03-20T04:35:43.389Z,0
2017-03-20T04:36:23.866Z,0
2017-03-20T04:37:04.360Z,0
2017-03-20T04:37:44.839Z,0
2017-03-20T04:38:25.333Z,0
2017-03-20T04:39:05.837Z,0
2017-03-20T04:39:46.326Z,0
2017-03-20T04:40:26.822Z,0
2017-03-20T04:41:07.323Z,0
2017-03-20T04:41:47.815Z,0
2017-03-20T04:42:28.304Z,0
2017-03-20T04:43:08.793Z,0
2017-03-20T04:43:49.293Z,0
2017-03-20T04:44:29.776Z,0
2017-03-20T04:45:10.269Z,0
2017-03-20T04:45:50.759Z,0
2017-03-20T04:46:31.254Z,0
2017-03-20T04:47:11.749Z,0
2017-03-20T04:47:52.244Z,0
2017-03-20T04:48:32.724Z,0
2017-03-20T04:49:13.220Z,0
2017-03-20T04:49:53.712Z,0
2017-03-20T04:50:34.206Z,0
2017-03-20T04:51:14.705Z,0
2017-03-20T04:51:55.192Z,0
2017-03-20T04:52:35.686Z,0
2017-03-20T04:53:16.185Z,0
2017-03-20T04:53:56.676Z,0
2017-03-20T04:54:37.166Z,0
2017-03-20T04:55:17.659Z,0
2017-03-20T04:55:58.148Z,0
2017-03-20T04:56:38.600Z,0
2017-03-20T04:57:19.095Z,0
2017-03-20T04:57:59.570Z,0
2017-03-20T04:58:40.089Z,0
2017-03-20T04:59:20.572Z,0
2017-03-20T05:00:01.068Z,0
2017-03-20T05:00:41.562Z,0
2017-03-20T05:01:22.051Z,0
2017-03-20T05:02:02.544Z,0
2017-03-20T05:02:43.042Z,0
2017-03-20T05:03:23.529Z,0
2017-03-20T05:04:03.996Z,0
2017-03-20T05:04:44.530Z,0
2017-03-20T05:05:25.003Z,0
2017-03-20T05:06:05.502Z,0
2017-03-20T05:06:45.978Z,0
2017-03-20T05:07:26.466Z,0
2017-03-20T05:08:06.975Z,0
2017-03-20T05:08:47.469Z,0
2017-03-20T05:09:27.959Z,0
2017-03-20T05:10:08.460Z,0
2017-03-20T05:10:48.951Z,0
2017-03-20T05:11:29.446Z,0
2017-03-20T05:12:09.935Z,0
2017-03-20T05:12:50.430Z,0
2017-03-20T05:13:30.920Z,0
2017-03-20T05:14:11.412Z,0
2017-03-20T05:14:51.899Z,0
2017-03-20T05:15:32.375Z,0
2017-03-20T05:16:12.837Z,0
2017-03-20T05:16:53.342Z,0
2017-03-20T05:17:33.834Z,0
2017-03-20T05:18:14.325Z,0
2017-03-20T05:18:54.820Z,0
2017-03-20T05:19:35.321Z,0
2017-03-20T05:20:15.805Z,0
2017-03-20T05:20:56.294Z,0
2017-03-20T05:21:36.780Z,0
2017-03-20T05:22:17.282Z,0
2017-03-20T05:22:57.772Z,0
2017-03-20T05:23:38.274Z,0
2017-03-20T05:24:18.757Z,0
2017-03-20T05:24:59.250Z,0
2017-03-20T05:25:39.744Z,0
2017-03-20T05:26:20.240Z,0
2017-03-20T05:27:00.734Z,0
2017-03-20T05:27:41.220Z,0
2017-03-20T05:28:21.711Z,0
2017-03-20T05:29:02.207Z,0
2017-03-20T05:29:42.698Z,0
2017-03-20T05:30:23.187Z,0
2017-03-20T05:31:03.681Z,0
2017-03-20T05:31:44.181Z,0
2017-03-20T05:32:24.665Z,0
2017-03-20T05:33:05.161Z,0
2017-03-20T05:33:45.657Z,0
2017-03-20T05:34:26.145Z,0
2017-03-20T05:35:06.638Z,0
2017-03-20T05:35:47.128Z,0
2017-03-20T05:36:27.625Z,5
2017-03-20T05:37:08.115Z,5
2017-03-20T05:37:48.606Z,5
2017-03-20T05:38:29.096Z,5
2017-03-20T05:39:09.590Z,5
2017-03-20T05:39:50.093Z,5
2017-03-20T05:40:30.574Z,5
2017-03-20T05:41:11.070Z,5
2017-03-20T05:41:51.557Z,5
2017-03-20T05:42:32.051Z,5
2017-03-20T05:43:12.543Z,5
2017-03-20T05:43:53.036Z,5
2017-03-20T05:44:33.528Z,5
2017-03-20T05:45:14.008Z,5
2017-03-20T05:45:54.486Z,5
2017-03-20T05:46:34.975Z,10
2017-03-20T05:47:15.469Z,10
2017-03-20T05:47:55.954Z,10
2017-03-20T05:48:36.461Z,10
2017-03-20T05:49:17.946Z,10
2017-03-20T05:49:58.439Z,10
2017-03-20T05:50:38.948Z,10
2017-03-20T05:51:19.445Z,10
2017-03-20T05:51:59.935Z,15
2017-03-20T05:52:40.450Z,15
2017-03-20T05:53:20.898Z,15
2017-03-20T05:54:01.375Z,15
2017-03-20T05:54:41.840Z,15
2017-03-20T05:55:22.831Z,15
2017-03-20T05:56:03.321Z,15
2017-03-20T05:56:43.803Z,15
2017-03-20T05:57:24.284Z,15
2017-03-20T05:58:04.776Z,20
2017-03-20T05:58:45.279Z,20
2017-03-20T05:59:25.749Z,20
2017-03-20T06:00:06.232Z,25
2017-03-20T06:00:46.739Z,25
2017-03-20T06:01:27.243Z,25
2017-03-20T06:02:07.728Z,25
2017-03-20T06:02:48.222Z,25
2017-03-20T06:03:28.702Z,25
2017-03-20T06:04:09.194Z,30
2017-03-20T06:04:49.707Z,30
2017-03-20T06:05:30.212Z,30
2017-03-20T06:06:10.718Z,30
2017-03-20T06:06:51.214Z,35
2017-03-20T06:09:19.137Z,35
2017-03-20T06:09:59.633Z,35
2017-03-20T06:10:40.116Z,35
2017-03-20T06:11:20.589Z,35
2017-03-20T06:12:01.082Z,35
2017-03-20T06:12:41.575Z,35
2017-03-20T06:13:22.058Z,40
2017-03-20T06:14:02.547Z,40
2017-03-20T06:14:43.026Z,40
2017-03-20T06:15:23.514Z,40
2017-03-20T06:16:03.990Z,45
2017-03-20T06:16:44.483Z,45
2017-03-20T06:17:24.984Z,50
2017-03-20T06:18:05.479Z,55
2017-03-20T06:18:45.958Z,55
2017-03-20T06:19:26.448Z,55
2017-03-20T06:20:06.942Z,60
2017-03-20T06:20:47.419Z,60
2017-03-20T06:21:27.928Z,60
2017-03-20T06:22:08.398Z,60
2017-03-20T06:22:48.883Z,70
2017-03-20T06:23:29.369Z,75
2017-03-20T06:24:09.877Z,80
2017-03-20T06:24:50.371Z,80
2017-03-20T06:25:30.847Z,80
2017-03-20T06:26:11.320Z,80
2017-03-20T06:26:51.827Z,80
2017-03-20T06:27:32.306Z,85
2017-03-20T06:28:12.809Z,85
2017-03-20T06:28:53.305Z,85
2017-03-20T06:29:33.805Z,85
2017-03-20T06:30:14.309Z,90
2017-03-20T06:30:54.779Z,95
2017-03-20T06:31:35.294Z,90
2017-03-20T06:32:15.784Z,90
2017-03-20T06:32:56.278Z,85
2017-03-20T06:33:36.774Z,85
2017-03-20T06:34:17.264Z,85
2017-03-20T06:34:57.752Z,80
2017-03-20T06:35:38.248Z,85
2017-03-20T06:36:18.747Z,90
2017-03-20T06:36:59.254Z,90
2017-03-20T06:37:39.757Z,95
2017-03-20T06:38:20.252Z,100
2017-03-20T06:39:01.587Z,105
2017-03-20T06:39:42.079Z,105
2017-03-20T06:40:22.581Z,105
2017-03-20T06:41:03.081Z,105
2017-03-20T06:41:43.571Z,105
2017-03-20T06:42:24.064Z,105
2017-03-20T06:43:04.561Z,105
2017-03-20T06:43:45.046Z,105
2017-03-20T06:44:25.541Z,105
2017-03-20T06:45:06.036Z,105
2017-03-20T06:45:46.528Z,105
2017-03-20T06:46:27.017Z,105
2017-03-20T06:47:07.504Z,100
2017-03-20T06:47:48.104Z,100
2017-03-20T06:48:28.757Z,105
2017-03-20T06:49:09.379Z,110
2017-03-20T06:49:50.013Z,105
2017-03-20T06:50:30.592Z,110
2017-03-20T06:51:11.084Z,115
2017-03-20T06:51:51.570Z,115
2017-03-20T06:52:32.101Z,115
2017-03-20T06:53:12.564Z,110
2017-03-20T06:53:53.064Z,110
2017-03-20T06:54:33.563Z,120
2017-03-20T06:55:14.064Z,135
2017-03-20T06:55:54.555Z,150
2017-03-20T06:56:35.054Z,160
2017-03-20T06:57:15.535Z,155
2017-03-20T06:57:56.036Z,150
2017-03-20T06:58:36.521Z,140
2017-03-20T06:59:17.017Z,135
2017-03-20T06:59:57.508Z,125
2017-03-20T07:00:38.011Z,120
2017-03-20T07:01:18.539Z,115
2017-03-20T07:01:59.002Z,115
2017-03-20T07:02:39.492Z,115
2017-03-20T07:03:19.993Z,115
2017-03-20T07:04:00.492Z,120
2017-03-20T07:04:40.990Z,120
2017-03-20T07:05:21.486Z,120
2017-03-20T07:06:02.012Z,115
2017-03-20T07:06:42.563Z,110
2017-03-20T07:07:23.113Z,110
2017-03-20T07:08:03.611Z,105
2017-03-20T07:08:44.139Z,110
2017-03-20T07:09:24.686Z,115
2017-03-20T07:10:05.221Z,110
2017-03-20T07:10:45.809Z,110
2017-03-20T07:11:26.508Z,110
2017-03-20T07:12:07.106Z,120
2017-03-20T07:12:47.598Z,125
2017-03-20T07:13:28.082Z,140
2017-03-20T07:14:08.879Z,155
2017-03-20T07:14:49.332Z,150
2017-03-20T07:15:29.902Z,160
2017-03-20T07:16:10.488Z,170
2017-03-20T07:16:51.043Z,160
2017-03-20T07:17:31.533Z,155
2017-03-20T07:18:12.123Z,155
2017-03-20T07:18:52.700Z,160
2017-03-20T07:19:33.299Z,175
2017-03-20T07:20:13.842Z,175
2017-03-20T07:20:54.380Z,205
2017-03-20T07:21:34.942Z,235
2017-03-20T07:22:15.494Z,270
2017-03-20T07:22:56.124Z,290
2017-03-20T07:23:36.762Z,295
2017-03-20T07:24:17.298Z,310
2017-03-20T07:24:57.858Z,290
2017-03-20T07:25:38.361Z,250
2017-03-20T07:26:18.954Z,255
2017-03-20T07:26:59.512Z,275
2017-03-20T07:27:40.027Z,250
2017-03-20T07:28:20.629Z,240
2017-03-20T07:29:01.185Z,235
2017-03-20T07:29:41.733Z,240
2017-03-20T07:30:22.298Z,245
2017-03-20T07:31:02.775Z,240
2017-03-20T07:31:43.379Z,250
2017-03-20T07:32:23.891Z,255
2017-03-20T07:33:04.546Z,270
2017-03-20T07:33:45.064Z,295
2017-03-20T07:34:25.619Z,285
2017-03-20T07:35:06.150Z,255
2017-03-20T07:35:46.676Z,210
2017-03-20T07:36:27.167Z,225
2017-03-20T07:37:07.698Z,180
2017-03-20T07:37:48.226Z,180
2017-03-20T07:38:28.777Z,175
2017-03-20T07:39:09.292Z,175
2017-03-20T07:39:49.830Z,185
2017-03-20T07:40:30.364Z,225
2017-03-20T07:41:10.858Z,285
2017-03-20T07:41:51.401Z,325
2017-03-20T07:42:31.909Z,385
2017-03-20T07:43:12.452Z,515
2017-03-20T07:43:52.973Z,525
2017-03-20T07:44:33.488Z,520
2017-03-20T07:45:14.005Z,515
2017-03-20T07:45:54.527Z,510
2017-03-20T07:46:35.045Z,475
2017-03-20T07:47:15.529Z,450
2017-03-20T07:47:56.040Z,430
2017-03-20T07:48:36.547Z,295
2017-03-20T07:49:17.089Z,260
2017-03-20T07:49:57.602Z,270
2017-03-20T07:50:38.095Z,275
2017-03-20T07:51:18.714Z,325
2017-03-20T07:51:59.279Z,465
2017-03-20T07:52:39.795Z,465
2017-03-20T07:53:20.296Z,455
2017-03-20T07:54:01.827Z,445
2017-03-20T07:54:42.301Z,420
2017-03-20T07:55:22.875Z,390
2017-03-20T07:56:03.524Z,360
2017-03-20T07:56:44.103Z,355
2017-03-20T07:57:24.697Z,365
2017-03-20T07:58:05.252Z,385
2017-03-20T07:58:45.833Z,405
2017-03-20T07:59:26.475Z,440
2017-03-20T08:00:07.000Z,485
2017-03-20T08:00:47.565Z,525
2017-03-20T08:01:28.036Z,555
2017-03-20T08:02:08.541Z,580
2017-03-20T08:02:49.043Z,545
2017-03-20T08:03:29.554Z,555
2017-03-20T08:04:10.028Z,535
2017-03-20T08:04:50.536Z,540
2017-03-20T08:05:31.073Z,515
2017-03-20T08:06:11.566Z,535
2017-03-20T08:06:52.038Z,565
2017-03-20T08:07:32.550Z,555
2017-03-20T08:08:13.043Z,510
2017-03-20T08:08:53.526Z,520
2017-03-20T08:09:34.028Z,495
2017-03-20T08:10:14.530Z,545
2017-03-20T08:10:55.027Z,550
2017-03-20T08:11:35.535Z,520
2017-03-20T08:12:16.040Z,555
2017-03-20T08:12:56.545Z,520
2017-03-20T08:13:37.056Z,490
2017-03-20T08:14:17.545Z,450
2017-03-20T08:14:58.026Z,490
2017-03-20T08:15:38.544Z,465
2017-03-20T08:16:19.049Z,460
2017-03-20T08:16:59.551Z,510
2017-03-20T08:17:40.098Z,405
2017-03-20T08:19:58.004Z,315
2017-03-20T08:20:38.639Z,335
2017-03-20T08:21:19.282Z,385
2017-03-20T08:21:59.806Z,460
2017-03-20T08:22:40.382Z,460
2017-03-20T08:23:20.865Z,490
2017-03-20T08:24:01.381Z,460
2017-03-20T08:24:41.904Z,465
2017-03-20T08:25:22.400Z,635
2017-03-20T08:26:02.919Z,445
2017-03-20T08:26:43.414Z,455
2017-03-20T08:27:23.909Z,455
2017-03-20T08:28:04.413Z,445
2017-03-20T08:28:44.912Z,430
2017-03-20T08:29:25.409Z,415
2017-03-20T08:30:05.910Z,430
2017-03-20T08:30:46.416Z,440
2017-03-20T08:31:26.918Z,430
2017-03-20T08:32:07.425Z,410
2017-03-20T08:32:47.925Z,385
2017-03-20T08:33:28.434Z,370
2017-03-20T08:34:09.002Z,375
2017-03-20T08:34:49.600Z,380
2017-03-20T08:35:30.206Z,395
2017-03-20T08:36:10.688Z,400
2017-03-20T08:36:51.170Z,410
2017-03-20T08:37:31.671Z,425
2017-03-20T08:38:12.200Z,440
2017-03-20T08:38:53.375Z,435
2017-03-20T08:39:33.930Z,430
2017-03-20T08:40:14.465Z,430
2017-03-20T08:40:55.009Z,435
2017-03-20T08:41:35.510Z,425
2017-03-20T08:42:16.044Z,430
2017-03-20T08:42:56.552Z,430
2017-03-20T08:43:37.045Z,415
2017-03-20T08:44:17.529Z,400
2017-03-20T08:44:58.039Z,395
2017-03-20T08:45:38.548Z,385
2017-03-20T08:46:19.040Z,380
2017-03-20T08:46:59.605Z,380
2017-03-20T08:47:40.230Z,375
2017-03-20T08:48:20.803Z,365
2017-03-20T08:49:01.429Z,365
2017-03-20T08:49:42.050Z,365
2017-03-20T08:50:22.665Z,370
2017-03-20T08:51:03.328Z,365
2017-03-20T08:51:43.932Z,350
2017-03-20T08:52:24.542Z,340
2017-03-20T08:53:05.135Z,330
2017-03-20T08:53:45.751Z,330
2017-03-20T08:54:26.370Z,325
2017-03-20T08:55:07.016Z,330
2017-03-20T08:55:47.642Z,325
2017-03-20T08:56:28.202Z,325
2017-03-20T08:57:08.819Z,325
2017-03-20T08:57:49.445Z,325
2017-03-20T08:58:30.022Z,320
2017-03-20T08:59:10.631Z,310
2017-03-20T08:59:51.291Z,305
2017-03-20T09:00:31.948Z,305
2017-03-20T09:01:12.627Z,305
2017-03-20T09:01:53.271Z,305
2017-03-20T09:02:34.912Z,300
2017-03-20T09:03:15.529Z,290
2017-03-20T09:03:56.897Z,285
2017-03-20T09:04:37.500Z,280
2017-03-20T09:05:18.070Z,275
2017-03-20T09:05:58.663Z,275
2017-03-20T09:06:39.262Z,275
2017-03-20T09:07:19.848Z,280
2017-03-20T09:08:00.431Z,285
2017-03-20T09:08:40.959Z,290
2017-03-20T09:09:21.452Z,290
2017-03-20T09:10:01.954Z,295
2017-03-20T09:10:42.446Z,295
2017-03-20T09:11:22.940Z,305
2017-03-20T09:12:03.411Z,310
2017-03-20T09:12:43.888Z,310
2017-03-20T09:13:24.361Z,315
2017-03-20T09:14:04.837Z,315
2017-03-20T09:14:45.326Z,310
2017-03-20T09:15:25.791Z,320
2017-03-20T09:16:06.240Z,320
2017-03-20T09:16:46.712Z,325
2017-03-20T09:17:27.204Z,335
2017-03-20T09:18:07.651Z,340
2017-03-20T09:20:40.640Z,365
2017-03-20T09:21:21.165Z,365
2017-03-20T09:22:01.727Z,355
2017-03-20T09:22:42.239Z,345
2017-03-20T09:23:22.685Z,330
2017-03-20T09:24:03.146Z,325
2017-03-20T09:24:43.602Z,325
2017-03-20T09:25:24.079Z,335
2017-03-20T09:26:04.576Z,345
2017-03-20T09:26:45.028Z,355
2017-03-20T09:27:25.504Z,355
2017-03-20T09:28:05.979Z,365
2017-03-20T09:28:46.459Z,365
2017-03-20T09:29:26.922Z,365
2017-03-20T09:30:07.406Z,360
2017-03-20T09:32:25.359Z,335
2017-03-20T09:33:06.025Z,330
2017-03-20T09:33:46.613Z,335
2017-03-20T09:34:27.132Z,340
2017-03-20T09:35:07.597Z,335
2017-03-20T09:35:48.072Z,340
2017-03-20T09:36:28.587Z,345
2017-03-20T09:37:09.024Z,350
2017-03-20T09:37:49.514Z,355
2017-03-20T09:38:29.967Z,355
2017-03-20T09:39:10.432Z,355
2017-03-20T09:39:50.881Z,355
2017-03-20T09:40:31.371Z,350
2017-03-20T09:42:59.545Z,355
2017-03-20T09:43:39.998Z,365
2017-03-20T09:44:20.521Z,375
2017-03-20T09:45:01.086Z,385
2017-03-20T09:45:41.647Z,385
2017-03-20T09:46:22.061Z,385
2017-03-20T09:47:02.581Z,385
2017-03-20T09:47:43.102Z,385
2017-03-20T09:48:23.678Z,385
2017-03-20T09:49:04.405Z,385
2017-03-20T09:49:45.106Z,390
2017-03-20T09:50:25.710Z,390
2017-03-20T09:51:06.369Z,385
2017-03-20T09:51:46.976Z,385
2017-03-20T09:52:27.652Z,385
2017-03-20T09:53:08.270Z,385
2017-03-20T09:53:49.155Z,380
2017-03-20T09:54:29.826Z,385
2017-03-20T09:55:10.385Z,390